Time;durP1;ratioP1;P1;durP2;ratioP2;P2;SDS_P1;SDS_P2;PMS_P1;PMS_P2;Temp;Humidity;BMP_temperature;BMP_pressure;BME280_temperature;BME280_humidity;BME280_pressure;Samples;Min_cycle;Max_cycle;Signal;HPM_P1;HPM_P2
2023/12/31 00:00:34;;;;;;;6.10;2.75;;;18.50;62.20;;;;;;5061782;28;20036;-51
2023/12/31 00:02:59;;;;;;;6.95;3.90;;;18.70;62.00;;;;;;5056860;28;20025;-50
2023/12/31 00:05:25;;;;;;;5.50;2.85;;;18.80;61.70;;;;;;5069318;28;20439;-50
2023/12/31 00:07:51;;;;;;;3.95;2.58;;;18.90;61.30;;;;;;5062535;28;20508;-49
2023/12/31 00:10:17;;;;;;;4.70;3.67;;;19.10;61.00;;;;;;5066507;28;20033;-51
2023/12/31 00:12:43;;;;;;;4.38;2.90;;;19.20;60.80;;;;;;5061068;28;20036;-51
2023/12/31 00:15:09;;;;;;;4.18;2.97;;;19.30;60.50;;;;;;5060417;28;20043;-52
2023/12/31 00:17:34;;;;;;;5.57;3.15;;;19.40;60.30;;;;;;5061419;28;20024;-52
2023/12/31 00:20:00;;;;;;;3.38;2.40;;;19.40;60.10;;;;;;5053659;28;20045;-54
2023/12/31 00:22:26;;;;;;;4.13;2.75;;;19.50;60.00;;;;;;5066981;28;20420;-48
2023/12/31 00:24:54;;;;;;;5.75;2.72;;;19.50;59.90;;;;;;5047717;28;20029;-51
2023/12/31 00:27:19;;;;;;;3.85;2.80;;;19.50;59.90;;;;;;5061141;28;20036;-49
2023/12/31 00:29:45;;;;;;;4.32;2.25;;;19.50;59.90;;;;;;5061266;28;20029;-50
2023/12/31 00:32:11;;;;;;;3.67;2.38;;;19.40;60.00;;;;;;5061693;28;20117;-51
2023/12/31 00:34:36;;;;;;;5.15;2.50;;;19.40;60.60;;;;;;5059093;28;20073;-48
2023/12/31 00:37:03;;;;;;;3.70;2.47;;;19.40;60.10;;;;;;5057585;28;20056;-48
2023/12/31 00:39:28;;;;;;;3.25;2.42;;;19.30;60.20;;;;;;5066020;28;20486;-53
2023/12/31 00:41:54;;;;;;;3.22;2.50;;;19.30;60.40;;;;;;5066185;28;20038;-49
2023/12/31 00:44:19;;;;;;;3.38;2.28;;;19.20;60.40;;;;;;5058556;28;20029;-57
2023/12/31 00:46:45;;;;;;;4.57;2.60;;;19.20;60.50;;;;;;5059279;28;20052;-48
2023/12/31 00:49:11;;;;;;;2.95;2.40;;;19.10;60.60;;;;;;5060858;28;20460;-47
2023/12/31 00:51:36;;;;;;;3.25;2.60;;;19.10;60.70;;;;;;5062753;28;20041;-49
2023/12/31 00:54:02;;;;;;;3.55;2.25;;;19.00;60.60;;;;;;5058301;28;20029;-48
2023/12/31 00:56:28;;;;;;;3.10;1.80;;;19.00;60.80;;;;;;5056894;28;20343;-49
2023/12/31 00:58:53;;;;;;;3.13;1.92;;;19.00;60.90;;;;;;5059884;28;20036;-53
2023/12/31 01:01:18;;;;;;;3.70;2.10;;;19.00;60.90;;;;;;5050409;28;20043;-50
2023/12/31 01:03:44;;;;;;;3.75;2.00;;;18.90;60.90;;;;;;5057460;28;20500;-48
2023/12/31 01:06:10;;;;;;;3.80;2.00;;;18.90;61.00;;;;;;5055527;28;20086;-49
2023/12/31 01:08:35;;;;;;;2.47;1.63;;;18.80;61.00;;;;;;5064278;28;20036;-55
2023/12/31 01:11:01;;;;;;;3.22;2.05;;;18.80;61.00;;;;;;5054061;28;20029;-51
2023/12/31 01:13:27;;;;;;;4.03;2.05;;;18.80;61.10;;;;;;5049970;28;20482;-48
2023/12/31 01:15:53;;;;;;;3.17;1.98;;;18.80;61.20;;;;;;5060199;28;20501;-48
2023/12/31 01:18:19;;;;;;;2.47;1.70;;;18.70;61.20;;;;;;5061820;28;20075;-48
2023/12/31 01:20:45;;;;;;;4.47;1.85;;;18.70;61.30;;;;;;5049682;28;20037;-46
2023/12/31 01:23:10;;;;;;;2.35;1.85;;;18.70;61.30;;;;;;5050841;28;20467;-46
2023/12/31 01:25:36;;;;;;;2.60;1.80;;;18.70;61.30;;;;;;5066788;28;20225;-48
2023/12/31 01:28:02;;;;;;;1.75;1.42;;;18.70;61.40;;;;;;5064820;28;20052;-51
2023/12/31 01:30:28;;;;;;;2.67;1.73;;;18.70;61.40;;;;;;5071017;28;20024;-49
2023/12/31 01:32:54;;;;;;;2.17;1.60;;;18.70;61.40;;;;;;5072001;28;20477;-49
2023/12/31 01:35:19;;;;;;;3.10;1.88;;;18.60;61.50;;;;;;5062941;28;20048;-46
2023/12/31 01:37:48;;;;;;;3.50;1.98;;;18.60;61.60;;;;;;5065869;28;20029;-46
2023/12/31 01:40:14;;;;;;;2.28;1.70;;;18.50;61.60;;;;;;5066402;28;20032;-49
2023/12/31 01:42:39;;;;;;;2.75;1.60;;;18.50;61.70;;;;;;5069728;28;20538;-46
2023/12/31 01:45:05;;;;;;;4.07;1.80;;;18.50;61.80;;;;;;5039178;28;20031;-46
2023/12/31 01:47:35;;;;;;;2.20;1.63;;;18.50;61.90;;;;;;5062003;28;20028;-46
2023/12/31 01:50:03;;;;;;;2.08;1.30;;;18.40;61.90;;;;;;5064428;28;20288;-52
2023/12/31 01:52:29;;;;;;;4.55;1.60;;;18.40;61.90;;;;;;5068170;28;21292;-52
2023/12/31 01:54:57;;;;;;;3.78;1.50;;;18.40;62.00;;;;;;5067046;28;20081;-48
2023/12/31 01:57:27;;;;;;;3.10;1.40;;;18.40;62.00;;;;;;5062256;28;20259;-49
2023/12/31 01:59:55;;;;;;;4.30;1.60;;;18.40;62.00;;;;;;5059219;28;20032;-50
2023/12/31 02:02:22;;;;;;;4.18;1.50;;;18.30;62.00;;;;;;5065717;28;20123;-52
2023/12/31 02:04:48;;;;;;;2.83;1.33;;;18.30;62.10;;;;;;5063134;28;20489;-48
2023/12/31 02:07:13;;;;;;;3.70;1.50;;;18.40;62.10;;;;;;5062319;28;20059;-50
2023/12/31 02:09:38;;;;;;;1.88;1.20;;;18.30;62.10;;;;;;5068104;28;20033;-50
2023/12/31 02:12:05;;;;;;;1.83;1.13;;;18.30;62.10;;;;;;5064221;28;20020;-46
2023/12/31 02:14:31;;;;;;;2.05;1.27;;;18.30;62.10;;;;;;5066350;28;20557;-48
2023/12/31 02:16:56;;;;;;;3.28;1.60;;;18.30;62.10;;;;;;5066199;28;20198;-47
2023/12/31 02:19:22;;;;;;;3.08;1.58;;;18.30;62.10;;;;;;5063841;28;20029;-47
2023/12/31 02:21:48;;;;;;;3.10;1.45;;;18.30;62.10;;;;;;5063772;28;20036;-46
2023/12/31 02:24:15;;;;;;;2.58;1.08;;;18.30;62.10;;;;;;5067072;28;20093;-50
2023/12/31 02:26:40;;;;;;;3.70;1.42;;;18.30;62.10;;;;;;5061460;28;20047;-48
2023/12/31 02:29:06;;;;;;;1.90;1.40;;;18.30;62.10;;;;;;5072261;28;20091;-48
2023/12/31 02:31:34;;;;;;;3.28;1.30;;;18.30;62.20;;;;;;5064149;28;20032;-48
2023/12/31 02:33:59;;;;;;;1.63;1.00;;;18.30;62.20;;;;;;5064384;28;20028;-50
2023/12/31 02:36:25;;;;;;;1.70;1.00;;;18.30;62.10;;;;;;5065102;28;20025;-46
2023/12/31 02:38:50;;;;;;;2.05;1.23;;;18.20;62.10;;;;;;5069850;28;20054;-48
2023/12/31 02:41:16;;;;;;;2.00;1.30;;;18.20;62.10;;;;;;5061864;28;20052;-50
2023/12/31 02:43:41;;;;;;;2.03;1.25;;;18.20;62.10;;;;;;5068622;28;20041;-51
2023/12/31 02:46:07;;;;;;;1.88;1.20;;;18.20;62.10;;;;;;5067754;28;20165;-48
2023/12/31 02:48:33;;;;;;;1.70;1.08;;;18.20;62.10;;;;;;5072666;28;20036;-46
2023/12/31 02:50:58;;;;;;;3.17;1.38;;;18.20;62.10;;;;;;5064169;28;20037;-48
2023/12/31 02:53:24;;;;;;;1.17;0.93;;;18.20;62.10;;;;;;5059282;28;20055;-47
2023/12/31 02:55:49;;;;;;;1.88;1.38;;;18.20;62.10;;;;;;5066556;28;20033;-51
2023/12/31 02:58:15;;;;;;;2.78;1.38;;;18.10;62.10;;;;;;5061977;28;20159;-51
2023/12/31 03:00:41;;;;;;;1.83;1.15;;;18.20;62.10;;;;;;5056441;28;20174;-51
2023/12/31 03:03:07;;;;;;;1.42;1.08;;;18.10;62.00;;;;;;5046483;28;20242;-48
2023/12/31 03:05:32;;;;;;;2.33;1.20;;;18.10;62.00;;;;;;5052563;28;20314;-46
2023/12/31 03:07:58;;;;;;;2.58;1.17;;;18.10;62.00;;;;;;5047947;28;20033;-51
2023/12/31 03:10:23;;;;;;;2.42;1.00;;;18.10;62.00;;;;;;5043860;28;20084;-50
2023/12/31 03:12:49;;;;;;;1.73;1.00;;;18.20;62.00;;;;;;5053743;28;20036;-51
2023/12/31 03:15:14;;;;;;;0.93;0.80;;;18.10;62.00;;;;;;5058731;28;20513;-48
2023/12/31 03:17:40;;;;;;;3.58;1.20;;;18.20;62.10;;;;;;5058349;28;20390;-52
2023/12/31 03:20:06;;;;;;;1.58;1.10;;;18.10;62.00;;;;;;5069451;28;20097;-47
2023/12/31 03:22:32;;;;;;;0.93;0.82;;;18.20;62.00;;;;;;5066371;28;20033;-54
2023/12/31 03:24:57;;;;;;;1.60;0.80;;;18.20;62.00;;;;;;5056247;28;20059;-49
2023/12/31 03:27:23;;;;;;;3.15;1.25;;;18.20;62.00;;;;;;5062811;28;20027;-47
2023/12/31 03:29:49;;;;;;;2.75;1.00;;;18.20;62.00;;;;;;5065502;28;20379;-49
2023/12/31 03:32:14;;;;;;;1.10;0.85;;;18.10;61.90;;;;;;5055698;28;20565;-49
2023/12/31 03:34:40;;;;;;;1.88;0.80;;;18.10;61.90;;;;;;5061240;28;20025;-49
2023/12/31 03:37:06;;;;;;;1.23;0.98;;;18.20;62.00;;;;;;5058089;28;20144;-52
2023/12/31 03:39:31;;;;;;;1.30;0.63;;;18.10;62.60;;;;;;5066494;28;20452;-46
2023/12/31 03:41:57;;;;;;;1.45;0.90;;;18.10;62.00;;;;;;5074559;28;20602;-51
2023/12/31 03:44:22;;;;;;;1.45;0.90;;;18.10;62.00;;;;;;5072040;28;20111;-48
2023/12/31 03:46:47;;;;;;;2.47;1.15;;;18.10;62.00;;;;;;5067186;28;20031;-49
2023/12/31 03:49:13;;;;;;;1.15;0.80;;;18.10;62.00;;;;;;5065887;28;20077;-47
2023/12/31 03:51:38;;;;;;;2.03;0.80;;;18.10;62.00;;;;;;5060443;28;20036;-48
2023/12/31 03:54:07;;;;;;;2.20;0.93;;;18.10;62.00;;;;;;5059412;28;20207;-52
2023/12/31 03:56:32;;;;;;;1.10;0.82;;;18.10;62.00;;;;;;5061455;28;20039;-50
2023/12/31 03:58:58;;;;;;;1.20;0.75;;;18.00;61.90;;;;;;5064274;28;20028;-47
2023/12/31 04:01:23;;;;;;;2.15;1.13;;;18.10;62.00;;;;;;5065276;28;20395;-50
2023/12/31 04:03:49;;;;;;;1.60;0.65;;;18.10;62.00;;;;;;5062473;28;20031;-47
2023/12/31 04:06:14;;;;;;;2.25;0.80;;;18.00;61.90;;;;;;5065135;28;20296;-47
2023/12/31 04:08:40;;;;;;;0.95;0.60;;;18.00;62.00;;;;;;5063964;28;20035;-48
2023/12/31 04:11:06;;;;;;;0.93;0.80;;;18.10;62.00;;;;;;5056595;28;20028;-52
2023/12/31 04:13:32;;;;;;;1.00;0.70;;;18.00;61.90;;;;;;5061658;28;20032;-51
2023/12/31 04:15:57;;;;;;;3.38;0.80;;;18.00;61.90;;;;;;5060748;28;20042;-49
2023/12/31 04:18:23;;;;;;;1.33;0.73;;;18.00;61.90;;;;;;5061610;28;20029;-53
2023/12/31 04:20:48;;;;;;;1.10;0.75;;;18.00;61.90;;;;;;5073119;28;20049;-49
2023/12/31 04:23:14;;;;;;;1.38;0.93;;;18.00;61.90;;;;;;5062954;28;20115;-49
2023/12/31 04:25:39;;;;;;;1.35;0.90;;;18.00;61.90;;;;;;5064712;28;20043;-51
2023/12/31 04:28:05;;;;;;;1.80;0.60;;;18.00;61.90;;;;;;5062031;28;20043;-47
2023/12/31 04:30:30;;;;;;;2.92;1.52;;;18.00;61.90;;;;;;5045610;28;20242;-51
2023/12/31 04:32:56;;;;;;;1.15;0.75;;;18.00;61.90;;;;;;5070116;28;20484;-54
2023/12/31 04:35:21;;;;;;;1.20;0.80;;;18.00;61.90;;;;;;5053424;28;20090;-52
2023/12/31 04:37:47;;;;;;;1.15;0.60;;;18.00;61.80;;;;;;5069768;28;20390;-48
2023/12/31 04:40:12;;;;;;;2.47;0.88;;;18.00;61.80;;;;;;5065181;28;20035;-49
2023/12/31 04:42:38;;;;;;;1.20;0.82;;;18.00;61.80;;;;;;5061319;28;20375;-51
2023/12/31 04:45:09;;;;;;;1.55;0.63;;;18.00;61.80;;;;;;5069118;28;20101;-49
2023/12/31 04:47:37;;;;;;;2.17;0.57;;;18.00;61.80;;;;;;5061302;28;20921;-51
2023/12/31 04:50:04;;;;;;;1.08;0.90;;;18.00;61.80;;;;;;5069530;28;20393;-47
2023/12/31 04:52:29;;;;;;;1.63;0.88;;;18.00;61.80;;;;;;5067939;28;20091;-50
2023/12/31 04:54:55;;;;;;;1.38;0.90;;;18.00;61.80;;;;;;5059548;28;20295;-49
2023/12/31 04:57:20;;;;;;;1.02;0.70;;;18.00;61.70;;;;;;5063186;28;20493;-49
2023/12/31 04:59:46;;;;;;;1.05;0.60;;;18.00;61.70;;;;;;5065655;28;20325;-50
2023/12/31 05:02:11;;;;;;;2.97;0.98;;;18.00;61.70;;;;;;5065961;28;20063;-47
2023/12/31 05:04:39;;;;;;;1.45;0.73;;;18.00;61.80;;;;;;5056637;28;20124;-49
2023/12/31 05:07:05;;;;;;;1.45;0.80;;;18.00;61.70;;;;;;5044507;28;20511;-51
2023/12/31 05:09:31;;;;;;;0.60;0.50;;;17.90;61.70;;;;;;5057946;28;20033;-51
2023/12/31 05:11:56;;;;;;;0.77;0.40;;;17.90;61.80;;;;;;5065098;28;20032;-52
2023/12/31 05:14:22;;;;;;;1.15;0.80;;;17.90;61.80;;;;;;5045247;28;20424;-47
2023/12/31 05:16:47;;;;;;;0.63;0.63;;;17.90;61.70;;;;;;5067108;28;20545;-47
2023/12/31 05:19:12;;;;;;;1.40;0.70;;;18.00;61.60;;;;;;5063890;28;20024;-50
2023/12/31 05:21:39;;;;;;;0.70;0.55;;;18.10;61.30;;;;;;5061470;28;20037;-47
2023/12/31 05:24:05;;;;;;;0.90;0.60;;;18.30;61.00;;;;;;5064506;28;20107;-53
2023/12/31 05:26:30;;;;;;;1.10;0.75;;;18.40;60.60;;;;;;5068656;28;20031;-52
2023/12/31 05:28:56;;;;;;;0.95;0.68;;;18.50;60.30;;;;;;5043679;28;20119;-49
2023/12/31 05:31:21;;;;;;;1.42;0.82;;;18.70;60.00;;;;;;5062599;28;20031;-47
2023/12/31 05:33:47;;;;;;;0.43;0.40;;;18.80;59.70;;;;;;5064132;28;20025;-55
2023/12/31 05:36:12;;;;;;;2.10;0.70;;;19.00;59.30;;;;;;5066359;28;20130;-47
2023/12/31 05:38:38;;;;;;;0.90;0.60;;;19.10;59.20;;;;;;5063733;28;20458;-48
2023/12/31 05:41:03;;;;;;;0.85;0.52;;;19.20;58.90;;;;;;5062550;28;20034;-50
2023/12/31 05:43:29;;;;;;;0.73;0.55;;;19.30;58.70;;;;;;5061902;28;20043;-47
2023/12/31 05:45:54;;;;;;;0.65;0.40;;;19.40;58.40;;;;;;5072996;28;20031;-47
2023/12/31 05:48:21;;;;;;;2.20;0.75;;;19.50;58.40;;;;;;5068451;28;20102;-47
2023/12/31 05:50:47;;;;;;;0.90;0.70;;;19.50;58.20;;;;;;5065187;22;20705;-48
2023/12/31 05:53:13;;;;;;;2.30;0.68;;;19.50;58.10;;;;;;5055856;28;20036;-48
2023/12/31 05:55:38;;;;;;;0.88;0.80;;;19.50;58.00;;;;;;5054372;28;20453;-47
2023/12/31 05:58:04;;;;;;;0.95;0.57;;;19.50;58.10;;;;;;5059021;28;20462;-49
2023/12/31 06:00:29;;;;;;;1.77;0.55;;;19.50;58.10;;;;;;5055295;28;20052;-50
2023/12/31 06:02:55;;;;;;;0.70;0.60;;;19.40;58.10;;;;;;5049114;28;20159;-49
2023/12/31 06:05:21;;;;;;;0.80;0.60;;;19.30;58.20;;;;;;5048897;28;20489;-48
2023/12/31 06:07:46;;;;;;;0.95;0.50;;;19.30;58.30;;;;;;5050408;28;20028;-48
2023/12/31 06:10:12;;;;;;;2.00;0.75;;;19.30;58.40;;;;;;5046143;28;20049;-53
2023/12/31 06:12:38;;;;;;;0.90;0.60;;;19.20;58.50;;;;;;5051010;28;20029;-50
2023/12/31 06:15:06;;;;;;;1.05;0.63;;;19.20;58.60;;;;;;5048265;28;20032;-47
2023/12/31 06:17:33;;;;;;;1.05;0.60;;;19.20;58.80;;;;;;5053032;28;20449;-48
2023/12/31 06:19:59;;;;;;;2.42;0.63;;;19.10;58.80;;;;;;5046955;28;20120;-48
2023/12/31 06:22:25;;;;;;;0.95;0.70;;;19.10;58.90;;;;;;5032085;28;20141;-49
2023/12/31 06:24:50;;;;;;;1.00;0.68;;;19.00;59.00;;;;;;5052414;28;20078;-54
2023/12/31 06:27:16;;;;;;;0.60;0.50;;;19.00;59.00;;;;;;5053818;28;20048;-49
2023/12/31 06:29:42;;;;;;;0.70;0.43;;;19.00;59.20;;;;;;5047425;28;20037;-48
2023/12/31 06:32:08;;;;;;;1.33;0.52;;;18.90;59.10;;;;;;5051099;28;20021;-50
2023/12/31 06:34:34;;;;;;;2.17;0.65;;;18.90;59.20;;;;;;5046514;28;20091;-46
2023/12/31 06:36:59;;;;;;;1.10;0.75;;;18.80;59.40;;;;;;5051370;28;20029;-49
2023/12/31 06:39:24;;;;;;;2.33;0.63;;;18.80;59.40;;;;;;5049564;28;20044;-53
2023/12/31 06:41:50;;;;;;;1.08;0.68;;;18.80;59.50;;;;;;5054710;28;20086;-47
2023/12/31 06:44:16;;;;;;;1.25;0.60;;;18.70;59.50;;;;;;5055224;28;20120;-47
2023/12/31 06:46:42;;;;;;;0.90;0.60;;;18.70;59.60;;;;;;5053551;28;20119;-51
2023/12/31 06:49:07;;;;;;;0.90;0.50;;;18.70;59.60;;;;;;5051145;28;20437;-52
2023/12/31 06:51:33;;;;;;;1.00;0.60;;;18.70;59.80;;;;;;5053599;28;20033;-52
2023/12/31 06:53:58;;;;;;;1.77;0.57;;;18.70;60.50;;;;;;5048218;28;20036;-47
2023/12/31 06:56:24;;;;;;;4.60;0.68;;;18.60;59.90;;;;;;5049296;28;20029;-47
2023/12/31 06:58:50;;;;;;;0.50;0.50;;;18.60;59.90;;;;;;5052939;28;20510;-50
2023/12/31 07:01:16;;;;;;;1.88;0.88;;;18.60;59.90;;;;;;5048468;28;20680;-48
2023/12/31 07:03:43;;;;;;;1.55;0.50;;;18.60;59.90;;;;;;5043560;28;20036;-48
2023/12/31 07:06:08;;;;;;;2.38;0.52;;;18.60;59.90;;;;;;5046779;28;20033;-48
2023/12/31 07:08:34;;;;;;;1.38;0.60;;;18.60;60.00;;;;;;5043270;28;20021;-50
2023/12/31 07:11:00;;;;;;;1.15;0.60;;;18.50;60.00;;;;;;5050636;28;20028;-52
2023/12/31 07:13:26;;;;;;;0.85;0.60;;;18.50;60.10;;;;;;5049440;28;20024;-51
2023/12/31 07:15:51;;;;;;;0.82;0.60;;;18.50;60.20;;;;;;5044284;28;20175;-46
2023/12/31 07:18:17;;;;;;;0.93;0.50;;;18.50;60.30;;;;;;5054840;28;20032;-48
2023/12/31 07:20:42;;;;;;;1.35;0.60;;;18.40;60.20;;;;;;5049379;28;20414;-48
2023/12/31 07:23:08;;;;;;;1.30;0.63;;;18.40;60.30;;;;;;5053830;28;20409;-52
2023/12/31 07:25:33;;;;;;;0.82;0.60;;;18.40;60.40;;;;;;5050392;28;20029;-46
2023/12/31 07:27:59;;;;;;;1.17;0.63;;;18.30;60.40;;;;;;5049741;28;20837;-46
2023/12/31 07:30:25;;;;;;;0.85;0.40;;;18.40;60.50;;;;;;5053477;28;20102;-47
2023/12/31 07:32:51;;;;;;;0.90;0.50;;;18.30;60.50;;;;;;5048406;28;20061;-47
2023/12/31 07:35:17;;;;;;;0.90;0.75;;;18.30;60.60;;;;;;5052204;28;20025;-46
2023/12/31 07:37:43;;;;;;;3.55;0.90;;;18.30;60.70;;;;;;5056574;28;20039;-50
2023/12/31 07:40:10;;;;;;;0.52;0.40;;;18.30;60.70;;;;;;5057605;28;20021;-49
2023/12/31 07:42:37;;;;;;;1.67;0.50;;;18.20;60.70;;;;;;5059738;28;20029;-47
2023/12/31 07:45:04;;;;;;;1.15;0.50;;;18.20;60.70;;;;;;5055775;28;20033;-50
2023/12/31 07:47:31;;;;;;;1.30;0.57;;;18.20;60.80;;;;;;5034532;28;20079;-52
2023/12/31 07:49:57;;;;;;;1.15;0.60;;;18.20;60.70;;;;;;5049931;28;20565;-49
2023/12/31 07:52:23;;;;;;;0.80;0.50;;;18.20;60.70;;;;;;5052393;28;20132;-51
2023/12/31 07:54:48;;;;;;;1.58;0.50;;;18.20;61.40;;;;;;5050353;28;20056;-46
2023/12/31 07:57:14;;;;;;;1.30;0.60;;;18.20;60.90;;;;;;5050198;28;20277;-54
2023/12/31 07:59:39;;;;;;;1.63;0.50;;;18.20;60.90;;;;;;5050035;28;20029;-51
2023/12/31 08:02:04;;;;;;;2.05;0.75;;;18.20;61.00;;;;;;5054898;28;20525;-54
2023/12/31 08:04:31;;;;;;;0.85;0.50;;;18.20;61.10;;;;;;5052214;28;20056;-49
2023/12/31 08:06:56;;;;;;;1.15;0.70;;;18.20;61.10;;;;;;5058794;28;20033;-51
2023/12/31 08:09:23;;;;;;;0.95;0.40;;;18.20;61.10;;;;;;5051424;28;20032;-47
2023/12/31 08:11:48;;;;;;;1.48;0.50;;;18.10;61.10;;;;;;5048179;28;20040;-47
2023/12/31 08:14:14;;;;;;;1.20;0.57;;;18.10;61.20;;;;;;5050408;28;20401;-48
2023/12/31 08:16:39;;;;;;;1.05;0.77;;;18.10;61.40;;;;;;5056812;28;20040;-51
2023/12/31 08:19:05;;;;;;;2.05;0.75;;;18.10;61.40;;;;;;5054960;28;21413;-49
2023/12/31 08:21:31;;;;;;;6.03;0.75;;;18.10;61.40;;;;;;5051228;28;20029;-52
2023/12/31 08:23:56;;;;;;;3.03;0.82;;;18.10;61.40;;;;;;5050869;28;20376;-52
2023/12/31 08:26:22;;;;;;;4.80;0.57;;;18.10;61.50;;;;;;5046437;28;20575;-49
2023/12/31 08:28:48;;;;;;;2.95;0.52;;;18.10;61.50;;;;;;5055140;28;20103;-49
2023/12/31 08:31:14;;;;;;;3.30;0.57;;;18.10;61.60;;;;;;5048870;28;20040;-50
2023/12/31 08:33:40;;;;;;;3.70;0.47;;;18.10;61.50;;;;;;5030463;28;20417;-49
2023/12/31 08:36:06;;;;;;;2.28;0.75;;;18.10;61.90;;;;;;5028646;28;20032;-49
2023/12/31 08:38:31;;;;;;;6.47;0.90;;;18.10;62.00;;;;;;5049170;28;20025;-47
2023/12/31 08:40:58;;;;;;;2.95;0.80;;;18.10;61.80;;;;;;5047355;28;20053;-49
2023/12/31 08:43:23;;;;;;;7.10;1.50;;;18.10;61.80;;;;;;5047692;28;20025;-48
2023/12/31 08:45:50;;;;;;;5.05;2.20;;;18.00;61.90;;;;;;5047807;28;20128;-49
2023/12/31 08:48:17;;;;;;;4.40;1.58;;;18.00;61.90;;;;;;5055960;28;20035;-47
2023/12/31 08:50:43;;;;;;;1.70;1.10;;;18.00;61.80;;;;;;5044397;28;20083;-47
2023/12/31 08:53:09;;;;;;;2.60;1.23;;;18.00;61.70;;;;;;5051001;28;20151;-49
2023/12/31 08:55:34;;;;;;;2.60;1.33;;;18.00;61.70;;;;;;5045478;28;20116;-48
2023/12/31 08:58:00;;;;;;;3.75;1.40;;;18.00;61.70;;;;;;5050461;28;20033;-47
2023/12/31 09:00:25;;;;;;;3.97;1.30;;;18.00;61.60;;;;;;5046712;28;20622;-49
2023/12/31 09:02:51;;;;;;;3.92;1.60;;;18.00;61.70;;;;;;5049736;28;20017;-53
2023/12/31 09:05:16;;;;;;;2.58;1.30;;;18.00;61.70;;;;;;5045120;28;20147;-49
2023/12/31 09:07:42;;;;;;;2.03;1.15;;;18.00;61.70;;;;;;5050857;28;20029;-49
2023/12/31 09:10:08;;;;;;;5.00;1.60;;;17.90;61.70;;;;;;5049276;28;20670;-49
2023/12/31 09:12:33;;;;;;;6.63;1.45;;;17.90;61.70;;;;;;5049485;28;20032;-48
2023/12/31 09:14:59;;;;;;;2.40;1.20;;;17.90;61.70;;;;;;5042700;28;20029;-48
2023/12/31 09:17:25;;;;;;;6.20;2.63;;;17.90;61.70;;;;;;5053259;28;20033;-49
2023/12/31 09:19:53;;;;;;;22.75;11.02;;;17.90;62.60;;;;;;5046352;28;20025;-49
2023/12/31 09:22:18;;;;;;;58.92;30.08;;;18.00;64.00;;;;;;5047556;28;20512;-50
2023/12/31 09:24:45;;;;;;;70.13;35.33;;;18.00;64.20;;;;;;5046428;28;20490;-50
2023/12/31 09:27:12;;;;;;;63.90;35.55;;;18.10;64.20;;;;;;5053248;28;20044;-47
2023/12/31 09:29:38;;;;;;;68.75;34.25;;;18.10;64.00;;;;;;5027647;28;20037;-50
2023/12/31 09:32:03;;;;;;;58.03;31.52;;;18.10;64.40;;;;;;5050893;28;20039;-49
2023/12/31 09:34:29;;;;;;;54.28;28.08;;;18.10;64.00;;;;;;5050796;28;20566;-48
2023/12/31 09:36:55;;;;;;;49.50;25.90;;;18.10;63.60;;;;;;5040900;28;20168;-48
2023/12/31 09:39:20;;;;;;;42.53;22.85;;;18.00;63.40;;;;;;5056789;28;20029;-51
2023/12/31 09:41:49;;;;;;;42.70;23.20;;;18.00;63.40;;;;;;5050647;28;20033;-48
2023/12/31 09:44:18;;;;;;;40.65;22.38;;;18.00;63.30;;;;;;5045932;28;20105;-48
2023/12/31 09:46:54;;;;;;;34.22;20.13;;;17.90;63.10;;;;;;5059862;28;20034;-51
2023/12/31 09:49:21;;;;;;;38.17;19.95;;;17.90;63.10;;;;;;5045825;28;20100;-50
2023/12/31 09:51:47;;;;;;;37.03;19.83;;;17.90;63.10;;;;;;5050477;28;20069;-48
2023/12/31 09:54:13;;;;;;;37.67;20.13;;;17.90;65.20;;;;;;5049844;28;20066;-51
2023/12/31 09:56:40;;;;;;;29.92;18.75;;;17.90;64.70;;;;;;5043480;28;20041;-49
2023/12/31 09:59:07;;;;;;;30.73;16.55;;;17.90;64.10;;;;;;5049568;28;20478;-49
2023/12/31 10:01:35;;;;;;;28.55;15.70;;;17.90;63.80;;;;;;5046387;28;20534;-49
2023/12/31 10:04:02;;;;;;;31.60;15.88;;;17.80;63.80;;;;;;5057849;28;20056;-50
2023/12/31 10:06:28;;;;;;;24.23;15.07;;;17.80;63.50;;;;;;5051653;28;20124;-49
2023/12/31 10:08:57;;;;;;;25.42;15.07;;;17.90;66.20;;;;;;5049848;28;20124;-49
2023/12/31 10:11:23;;;;;;;20.20;13.18;;;17.90;68.60;;;;;;5044346;28;20075;-49
2023/12/31 10:13:48;;;;;;;25.13;13.32;;;18.00;67.10;;;;;;5044707;28;20036;-50
2023/12/31 10:16:14;;;;;;;23.67;13.63;;;17.90;66.50;;;;;;5043685;28;24776;-48
2023/12/31 10:18:40;;;;;;;18.90;12.35;;;17.90;65.90;;;;;;5052036;28;20087;-50
2023/12/31 10:21:08;;;;;;;19.63;11.73;;;17.90;66.90;;;;;;5043891;28;20025;-50
2023/12/31 10:23:34;;;;;;;18.92;12.10;;;17.90;69.20;;;;;;5049136;28;20037;-49
2023/12/31 10:25:59;;;;;;;20.70;11.95;;;18.00;69.60;;;;;;5050707;28;20025;-50
2023/12/31 10:28:27;;;;;;;17.73;11.23;;;18.00;70.20;;;;;;5052673;28;20029;-51
2023/12/31 10:30:53;;;;;;;18.83;11.13;;;18.00;70.50;;;;;;5045190;28;20029;-50
2023/12/31 10:33:26;;;;;;;15.25;9.85;;;18.10;69.80;;;;;;5043925;28;20040;-48
2023/12/31 10:36:02;;;;;;;16.67;9.90;;;18.00;70.60;;;;;;5043675;28;20455;-50
2023/12/31 10:38:28;;;;;;;13.18;9.70;;;18.10;72.90;;;;;;5041990;28;20047;-49
2023/12/31 10:41:09;;;;;;;12.98;8.90;;;18.20;73.60;;;;;;5055662;28;20431;-50
2023/12/31 10:43:39;;;;;;;19.00;10.02;;;18.20;74.10;;;;;;5057684;28;20032;-47
2023/12/31 10:46:07;;;;;;;15.30;9.40;;;18.30;73.80;;;;;;5054701;28;20058;-49
2023/12/31 10:48:34;;;;;;;14.77;9.50;;;18.50;73.10;;;;;;5054993;28;20064;-47
2023/12/31 10:51:05;;;;;;;12.60;8.48;;;18.60;72.80;;;;;;5053144;28;20059;-51
2023/12/31 10:53:37;;;;;;;14.52;9.27;;;18.70;71.00;;;;;;5053263;28;20557;-51
2023/12/31 10:56:04;;;;;;;17.38;10.18;;;18.80;70.00;;;;;;5056228;28;20041;-49
2023/12/31 10:58:30;;;;;;;21.73;11.35;;;19.00;69.50;;;;;;5054984;28;20051;-49
2023/12/31 11:00:57;;;;;;;20.67;11.98;;;19.10;69.10;;;;;;5052283;28;20438;-49
2023/12/31 11:03:25;;;;;;;15.95;9.50;;;19.20;68.20;;;;;;5050330;28;20041;-50
2023/12/31 11:05:50;;;;;;;18.40;10.00;;;19.40;67.40;;;;;;5055650;28;20094;-49
2023/12/31 11:08:17;;;;;;;17.05;8.55;;;19.50;66.10;;;;;;5047287;28;20033;-50
2023/12/31 11:10:43;;;;;;;10.40;6.90;;;19.60;64.90;;;;;;5042924;28;20525;-50
2023/12/31 11:13:10;;;;;;;10.45;6.03;;;19.60;64.00;;;;;;5055614;28;20051;-48
2023/12/31 11:15:37;;;;;;;10.32;6.03;;;19.70;63.20;;;;;;5034908;28;20032;-48
2023/12/31 11:18:26;;;;;;;9.60;4.93;;;19.70;62.70;;;;;;5052676;28;20052;-51
2023/12/31 11:21:13;;;;;;;8.55;4.97;;;19.60;62.70;;;;;;5051004;28;20036;-49
2023/12/31 11:23:47;;;;;;;8.73;4.25;;;19.60;61.80;;;;;;5052597;28;20472;-48
2023/12/31 11:26:12;;;;;;;7.82;4.75;;;19.50;61.50;;;;;;5048836;28;20055;-48
2023/12/31 11:28:47;;;;;;;6.25;3.47;;;19.50;61.30;;;;;;5047419;28;20033;-48
2023/12/31 11:31:13;;;;;;;5.85;3.25;;;19.50;60.90;;;;;;5050606;28;20421;-50
2023/12/31 11:33:39;;;;;;;5.18;3.28;;;19.50;61.00;;;;;;5056808;28;20056;-48
2023/12/31 11:36:16;;;;;;;8.95;4.13;;;19.40;60.80;;;;;;5057986;28;20447;-49
2023/12/31 11:38:56;;;;;;;13.88;4.40;;;19.40;61.10;;;;;;5048533;28;20033;-50
2023/12/31 11:41:45;;;;;;;11.43;4.28;;;19.30;61.30;;;;;;5058105;28;20146;-51
2023/12/31 11:44:30;;;;;;;10.55;3.70;;;19.20;61.10;;;;;;5051466;28;20084;-47
2023/12/31 11:46:58;;;;;;;9.48;3.88;;;19.20;61.20;;;;;;5055523;28;20029;-50
2023/12/31 11:49:25;;;;;;;10.10;4.22;;;19.10;60.90;;;;;;5053489;28;20036;-48
2023/12/31 11:51:55;;;;;;;6.63;3.25;;;19.00;60.50;;;;;;5047767;28;20033;-48
2023/12/31 11:54:25;;;;;;;6.45;2.50;;;19.00;60.00;;;;;;5049124;28;20481;-48
2023/12/31 11:56:51;;;;;;;5.15;2.38;;;19.00;60.00;;;;;;5041727;28;20124;-50
2023/12/31 11:59:17;;;;;;;2.67;1.95;;;19.00;59.90;;;;;;5058184;28;20033;-49
2023/12/31 12:01:44;;;;;;;4.90;2.42;;;18.90;60.70;;;;;;5045491;28;20063;-48
2023/12/31 12:04:11;;;;;;;5.30;2.35;;;18.90;60.30;;;;;;5060376;28;20032;-48
2023/12/31 12:06:36;;;;;;;4.75;2.50;;;18.90;60.40;;;;;;5060935;28;20515;-50
2023/12/31 12:09:02;;;;;;;7.13;1.95;;;18.90;60.60;;;;;;5056337;28;20116;-49
2023/12/31 12:11:27;;;;;;;9.10;2.33;;;18.80;60.60;;;;;;5058115;28;20521;-50
2023/12/31 12:13:53;;;;;;;5.72;2.40;;;18.70;60.70;;;;;;5064765;28;20028;-48
2023/12/31 12:16:18;;;;;;;5.45;2.28;;;18.70;60.90;;;;;;5050179;28;20064;-50
2023/12/31 12:18:44;;;;;;;10.98;2.42;;;18.60;61.00;;;;;;5051356;28;20029;-50
2023/12/31 12:21:09;;;;;;;5.22;2.17;;;18.60;61.30;;;;;;5045099;28;20375;-49
2023/12/31 12:23:35;;;;;;;6.80;2.15;;;18.50;61.50;;;;;;5060141;28;20031;-49
2023/12/31 12:26:02;;;;;;;7.05;2.83;;;18.50;62.10;;;;;;5049524;28;20025;-50
2023/12/31 12:28:28;;;;;;;9.85;2.70;;;18.50;61.30;;;;;;5053940;28;21185;-48
2023/12/31 12:30:53;;;;;;;7.00;2.95;;;18.40;61.50;;;;;;5058247;28;20041;-50
2023/12/31 12:33:19;;;;;;;5.10;2.72;;;18.40;61.30;;;;;;5061266;28;20029;-49
2023/12/31 12:35:45;;;;;;;6.03;2.65;;;18.40;61.30;;;;;;5061274;28;20032;-50
2023/12/31 12:38:12;;;;;;;6.57;3.38;;;18.30;61.20;;;;;;5054677;28;20050;-49